sensor_id;sensor_type;location;lat;lon;timestamp;P1;durP1;ratioP1;P2;durP2;ratioP2
19291;SDS011;9779;51.756;7.450;2024-03-02T00:00:08;1.80;;;1.70;;
19291;SDS011;9779;51.756;7.450;2024-03-02T00:02:46;2.53;;;1.83;;
19291;SDS011;9779;51.756;7.450;2024-03-02T00:05:19;1.80;;;1.70;;
19291;SDS011;9779;51.756;7.450;2024-03-02T00:07:47;2.07;;;1.90;;
19291;SDS011;9779;51.756;7.450;2024-03-02T00:10:31;2.20;;;2.00;;
19291;SDS011;9779;51.756;7.450;2024-03-02T00:13:04;2.20;;;2.00;;
19291;SDS011;9779;51.756;7.450;2024-03-02T00:18:06;1.80;;;1.70;;
19291;SDS011;9779;51.756;7.450;2024-03-02T00:20:33;1.83;;;1.73;;
19291;SDS011;9779;51.756;7.450;2024-03-02T00:23:05;2.27;;;1.80;;
19291;SDS011;9779;51.756;7.450;2024-03-02T00:25:40;1.90;;;1.80;;
19291;SDS011;9779;51.756;7.450;2024-03-02T00:28:41;1.90;;;1.80;;
19291;SDS011;9779;51.756;7.450;2024-03-02T00:31:10;1.70;;;1.60;;
19291;SDS011;9779;51.756;7.450;2024-03-02T00:33:44;1.47;;;1.37;;
19291;SDS011;9779;51.756;7.450;2024-03-02T00:36:16;2.00;;;1.90;;
19291;SDS011;9779;51.756;7.450;2024-03-02T00:38:50;1.80;;;1.70;;
19291;SDS011;9779;51.756;7.450;2024-03-02T00:41:30;2.00;;;1.90;;
19291;SDS011;9779;51.756;7.450;2024-03-02T00:46:33;2.10;;;1.70;;
19291;SDS011;9779;51.756;7.450;2024-03-02T00:49:03;2.30;;;2.10;;
19291;SDS011;9779;51.756;7.450;2024-03-02T00:51:30;3.87;;;1.70;;
19291;SDS011;9779;51.756;7.450;2024-03-02T00:54:01;1.60;;;1.50;;
19291;SDS011;9779;51.756;7.450;2024-03-02T00:56:29;1.80;;;1.70;;
19291;SDS011;9779;51.756;7.450;2024-03-02T00:58:55;2.17;;;1.97;;
19291;SDS011;9779;51.756;7.450;2024-03-02T01:01:21;1.63;;;1.53;;
19291;SDS011;9779;51.756;7.450;2024-03-02T01:03:47;1.93;;;1.80;;
19291;SDS011;9779;51.756;7.450;2024-03-02T01:06:16;1.80;;;1.70;;
19291;SDS011;9779;51.756;7.450;2024-03-02T01:08:42;2.40;;;2.20;;
19291;SDS011;9779;51.756;7.450;2024-03-02T01:11:08;2.10;;;2.00;;
19291;SDS011;9779;51.756;7.450;2024-03-02T01:13:34;1.67;;;1.57;;
19291;SDS011;9779;51.756;7.450;2024-03-02T01:16:03;2.23;;;1.80;;
19291;SDS011;9779;51.756;7.450;2024-03-02T01:18:29;2.57;;;1.50;;
19291;SDS011;9779;51.756;7.450;2024-03-02T01:20:55;1.90;;;1.80;;
19291;SDS011;9779;51.756;7.450;2024-03-02T01:23:21;2.03;;;1.90;;
19291;SDS011;9779;51.756;7.450;2024-03-02T01:25:48;3.27;;;1.60;;
19291;SDS011;9779;51.756;7.450;2024-03-02T01:28:14;3.70;;;1.60;;
19291;SDS011;9779;51.756;7.450;2024-03-02T01:30:40;2.40;;;1.30;;
19291;SDS011;9779;51.756;7.450;2024-03-02T01:33:06;1.03;;;1.00;;
19291;SDS011;9779;51.756;7.450;2024-03-02T01:35:32;1.50;;;1.40;;
19291;SDS011;9779;51.756;7.450;2024-03-02T01:37:58;2.20;;;1.83;;
19291;SDS011;9779;51.756;7.450;2024-03-02T01:40:23;3.37;;;1.40;;
19291;SDS011;9779;51.756;7.450;2024-03-02T01:42:53;1.63;;;1.47;;
19291;SDS011;9779;51.756;7.450;2024-03-02T01:45:19;1.50;;;1.37;;
19291;SDS011;9779;51.756;7.450;2024-03-02T01:47:45;1.43;;;1.33;;
19291;SDS011;9779;51.756;7.450;2024-03-02T01:50:11;2.37;;;1.50;;
19291;SDS011;9779;51.756;7.450;2024-03-02T01:52:37;2.23;;;2.03;;
19291;SDS011;9779;51.756;7.450;2024-03-02T01:55:03;4.07;;;1.40;;
19291;SDS011;9779;51.756;7.450;2024-03-02T01:57:29;3.03;;;1.23;;
19291;SDS011;9779;51.756;7.450;2024-03-02T01:59:55;1.53;;;1.40;;
19291;SDS011;9779;51.756;7.450;2024-03-02T02:02:20;1.83;;;1.43;;
19291;SDS011;9779;51.756;7.450;2024-03-02T02:04:46;2.00;;;1.80;;
19291;SDS011;9779;51.756;7.450;2024-03-02T02:07:12;1.93;;;1.80;;
19291;SDS011;9779;51.756;7.450;2024-03-02T02:09:39;1.70;;;1.60;;
19291;SDS011;9779;51.756;7.450;2024-03-02T02:12:06;1.50;;;1.40;;
19291;SDS011;9779;51.756;7.450;2024-03-02T02:14:32;1.40;;;1.30;;
19291;SDS011;9779;51.756;7.450;2024-03-02T02:16:58;4.33;;;1.43;;
19291;SDS011;9779;51.756;7.450;2024-03-02T02:19:24;2.43;;;1.27;;
19291;SDS011;9779;51.756;7.450;2024-03-02T02:21:50;1.47;;;1.37;;
19291;SDS011;9779;51.756;7.450;2024-03-02T02:24:15;1.27;;;1.17;;
19291;SDS011;9779;51.756;7.450;2024-03-02T02:26:41;1.60;;;1.30;;
19291;SDS011;9779;51.756;7.450;2024-03-02T02:29:07;2.97;;;1.47;;
19291;SDS011;9779;51.756;7.450;2024-03-02T02:31:39;7.67;;;1.50;;
19291;SDS011;9779;51.756;7.450;2024-03-02T02:34:06;1.73;;;1.63;;
19291;SDS011;9779;51.756;7.450;2024-03-02T02:36:36;1.47;;;1.00;;
19291;SDS011;9779;51.756;7.450;2024-03-02T02:39:04;1.33;;;1.23;;
19291;SDS011;9779;51.756;7.450;2024-03-02T02:41:32;1.27;;;1.17;;
19291;SDS011;9779;51.756;7.450;2024-03-02T02:43:58;4.03;;;1.50;;
19291;SDS011;9779;51.756;7.450;2024-03-02T02:46:24;4.20;;;1.20;;
19291;SDS011;9779;51.756;7.450;2024-03-02T02:48:49;3.47;;;1.43;;
19291;SDS011;9779;51.756;7.450;2024-03-02T02:51:16;1.93;;;1.50;;
19291;SDS011;9779;51.756;7.450;2024-03-02T02:53:42;3.17;;;1.83;;
19291;SDS011;9779;51.756;7.450;2024-03-02T02:56:08;3.17;;;1.60;;
19291;SDS011;9779;51.756;7.450;2024-03-02T02:58:34;1.70;;;1.60;;
19291;SDS011;9779;51.756;7.450;2024-03-02T03:00:59;2.03;;;1.80;;
19291;SDS011;9779;51.756;7.450;2024-03-02T03:03:28;1.50;;;1.40;;
19291;SDS011;9779;51.756;7.450;2024-03-02T03:05:55;1.87;;;1.77;;
19291;SDS011;9779;51.756;7.450;2024-03-02T03:08:20;2.87;;;1.60;;
19291;SDS011;9779;51.756;7.450;2024-03-02T03:10:48;1.50;;;1.40;;
19291;SDS011;9779;51.756;7.450;2024-03-02T03:13:14;1.87;;;1.77;;
19291;SDS011;9779;51.756;7.450;2024-03-02T03:15:40;2.00;;;1.90;;
19291;SDS011;9779;51.756;7.450;2024-03-02T03:18:06;3.27;;;1.30;;
19291;SDS011;9779;51.756;7.450;2024-03-02T03:20:32;3.00;;;2.23;;
19291;SDS011;9779;51.756;7.450;2024-03-02T03:22:59;2.07;;;1.83;;
19291;SDS011;9779;51.756;7.450;2024-03-02T03:25:25;6.97;;;1.60;;
19291;SDS011;9779;51.756;7.450;2024-03-02T03:27:51;2.20;;;2.00;;
19291;SDS011;9779;51.756;7.450;2024-03-02T03:30:19;5.80;;;1.90;;
19291;SDS011;9779;51.756;7.450;2024-03-02T03:32:45;4.03;;;1.60;;
19291;SDS011;9779;51.756;7.450;2024-03-02T03:35:10;2.17;;;1.43;;
19291;SDS011;9779;51.756;7.450;2024-03-02T03:37:38;2.47;;;1.90;;
19291;SDS011;9779;51.756;7.450;2024-03-02T03:40:03;1.97;;;1.50;;
19291;SDS011;9779;51.756;7.450;2024-03-02T03:42:35;1.80;;;1.70;;
19291;SDS011;9779;51.756;7.450;2024-03-02T03:45:01;3.43;;;1.87;;
19291;SDS011;9779;51.756;7.450;2024-03-02T03:47:27;2.20;;;2.10;;
19291;SDS011;9779;51.756;7.450;2024-03-02T03:49:53;1.63;;;1.53;;
19291;SDS011;9779;51.756;7.450;2024-03-02T03:52:18;7.00;;;1.57;;
19291;SDS011;9779;51.756;7.450;2024-03-02T03:54:44;1.53;;;1.43;;
19291;SDS011;9779;51.756;7.450;2024-03-02T03:57:10;1.37;;;1.27;;
19291;SDS011;9779;51.756;7.450;2024-03-02T03:59:35;1.83;;;1.73;;
19291;SDS011;9779;51.756;7.450;2024-03-02T04:02:02;1.60;;;1.50;;
19291;SDS011;9779;51.756;7.450;2024-03-02T04:04:28;1.87;;;1.30;;
19291;SDS011;9779;51.756;7.450;2024-03-02T04:06:54;1.60;;;1.50;;
19291;SDS011;9779;51.756;7.450;2024-03-02T04:09:19;1.30;;;1.20;;
19291;SDS011;9779;51.756;7.450;2024-03-02T04:11:45;1.60;;;1.50;;
19291;SDS011;9779;51.756;7.450;2024-03-02T04:14:11;2.23;;;1.30;;
19291;SDS011;9779;51.756;7.450;2024-03-02T04:16:37;1.80;;;1.33;;
19291;SDS011;9779;51.756;7.450;2024-03-02T04:19:04;1.30;;;1.17;;
19291;SDS011;9779;51.756;7.450;2024-03-02T04:21:29;2.33;;;1.40;;
19291;SDS011;9779;51.756;7.450;2024-03-02T04:23:55;1.40;;;1.30;;
19291;SDS011;9779;51.756;7.450;2024-03-02T04:26:23;3.60;;;1.30;;
19291;SDS011;9779;51.756;7.450;2024-03-02T04:28:50;1.63;;;1.07;;
19291;SDS011;9779;51.756;7.450;2024-03-02T04:31:16;1.73;;;1.37;;
19291;SDS011;9779;51.756;7.450;2024-03-02T04:33:42;1.30;;;1.20;;
19291;SDS011;9779;51.756;7.450;2024-03-02T04:36:08;1.70;;;1.60;;
19291;SDS011;9779;51.756;7.450;2024-03-02T04:38:34;1.37;;;1.20;;
19291;SDS011;9779;51.756;7.450;2024-03-02T04:41:00;2.83;;;1.47;;
19291;SDS011;9779;51.756;7.450;2024-03-02T04:43:26;1.43;;;1.20;;
19291;SDS011;9779;51.756;7.450;2024-03-02T04:45:52;2.10;;;1.47;;
19291;SDS011;9779;51.756;7.450;2024-03-02T04:48:17;1.63;;;1.10;;
19291;SDS011;9779;51.756;7.450;2024-03-02T04:50:44;1.40;;;1.30;;
19291;SDS011;9779;51.756;7.450;2024-03-02T04:53:09;1.20;;;1.10;;
19291;SDS011;9779;51.756;7.450;2024-03-02T04:55:35;3.73;;;1.30;;
19291;SDS011;9779;51.756;7.450;2024-03-02T04:58:04;1.40;;;1.30;;
19291;SDS011;9779;51.756;7.450;2024-03-02T05:00:30;4.07;;;1.47;;
19291;SDS011;9779;51.756;7.450;2024-03-02T05:02:55;4.60;;;1.33;;
19291;SDS011;9779;51.756;7.450;2024-03-02T05:05:21;2.80;;;1.27;;
19291;SDS011;9779;51.756;7.450;2024-03-02T05:07:47;1.07;;;0.97;;
19291;SDS011;9779;51.756;7.450;2024-03-02T05:10:12;1.23;;;1.13;;
19291;SDS011;9779;51.756;7.450;2024-03-02T05:12:39;1.40;;;1.30;;
19291;SDS011;9779;51.756;7.450;2024-03-02T05:15:08;1.20;;;1.10;;
19291;SDS011;9779;51.756;7.450;2024-03-02T05:17:35;1.63;;;1.53;;
19291;SDS011;9779;51.756;7.450;2024-03-02T05:20:01;1.30;;;1.20;;
19291;SDS011;9779;51.756;7.450;2024-03-02T05:22:28;3.93;;;1.60;;
19291;SDS011;9779;51.756;7.450;2024-03-02T05:24:53;1.40;;;1.30;;
19291;SDS011;9779;51.756;7.450;2024-03-02T05:27:19;1.13;;;1.03;;
19291;SDS011;9779;51.756;7.450;2024-03-02T05:29:45;1.60;;;1.50;;
19291;SDS011;9779;51.756;7.450;2024-03-02T05:32:10;2.30;;;1.50;;
19291;SDS011;9779;51.756;7.450;2024-03-02T05:34:36;2.07;;;1.70;;
19291;SDS011;9779;51.756;7.450;2024-03-02T05:37:01;2.87;;;1.43;;
19291;SDS011;9779;51.756;7.450;2024-03-02T05:39:27;1.30;;;1.20;;
19291;SDS011;9779;51.756;7.450;2024-03-02T05:41:53;1.43;;;1.00;;
19291;SDS011;9779;51.756;7.450;2024-03-02T05:44:19;2.43;;;1.13;;
19291;SDS011;9779;51.756;7.450;2024-03-02T05:46:45;1.50;;;1.40;;
19291;SDS011;9779;51.756;7.450;2024-03-02T05:49:12;1.20;;;1.20;;
19291;SDS011;9779;51.756;7.450;2024-03-02T05:51:37;1.30;;;1.20;;
19291;SDS011;9779;51.756;7.450;2024-03-02T05:54:03;2.13;;;1.50;;
19291;SDS011;9779;51.756;7.450;2024-03-02T05:56:28;1.60;;;1.50;;
19291;SDS011;9779;51.756;7.450;2024-03-02T05:58:54;1.50;;;1.40;;
19291;SDS011;9779;51.756;7.450;2024-03-02T06:01:33;2.03;;;1.40;;
19291;SDS011;9779;51.756;7.450;2024-03-02T06:03:59;2.40;;;1.70;;
19291;SDS011;9779;51.756;7.450;2024-03-02T06:06:24;1.60;;;1.50;;
19291;SDS011;9779;51.756;7.450;2024-03-02T06:08:50;1.50;;;1.40;;
19291;SDS011;9779;51.756;7.450;2024-03-02T06:11:16;2.37;;;1.70;;
19291;SDS011;9779;51.756;7.450;2024-03-02T06:13:42;3.43;;;1.43;;
19291;SDS011;9779;51.756;7.450;2024-03-02T06:16:08;1.37;;;1.27;;
19291;SDS011;9779;51.756;7.450;2024-03-02T06:18:34;1.80;;;1.70;;
19291;SDS011;9779;51.756;7.450;2024-03-02T06:21:00;1.40;;;1.30;;
19291;SDS011;9779;51.756;7.450;2024-03-02T06:23:28;2.30;;;1.70;;
19291;SDS011;9779;51.756;7.450;2024-03-02T06:25:54;1.77;;;1.50;;
19291;SDS011;9779;51.756;7.450;2024-03-02T06:28:19;2.13;;;1.80;;
19291;SDS011;9779;51.756;7.450;2024-03-02T06:30:45;1.33;;;1.23;;
19291;SDS011;9779;51.756;7.450;2024-03-02T06:33:11;2.10;;;1.90;;
19291;SDS011;9779;51.756;7.450;2024-03-02T06:35:37;2.43;;;1.63;;
19291;SDS011;9779;51.756;7.450;2024-03-02T06:38:03;2.20;;;2.00;;
19291;SDS011;9779;51.756;7.450;2024-03-02T06:40:28;1.87;;;1.77;;
19291;SDS011;9779;51.756;7.450;2024-03-02T06:42:54;2.47;;;1.80;;
19291;SDS011;9779;51.756;7.450;2024-03-02T06:45:20;1.77;;;1.67;;
19291;SDS011;9779;51.756;7.450;2024-03-02T06:47:45;3.53;;;1.53;;
19291;SDS011;9779;51.756;7.450;2024-03-02T06:50:11;2.00;;;1.50;;
19291;SDS011;9779;51.756;7.450;2024-03-02T06:52:36;1.87;;;1.70;;
19291;SDS011;9779;51.756;7.450;2024-03-02T06:55:02;1.67;;;1.30;;
19291;SDS011;9779;51.756;7.450;2024-03-02T06:57:29;3.13;;;1.67;;
19291;SDS011;9779;51.756;7.450;2024-03-02T06:59:55;2.60;;;1.67;;
19291;SDS011;9779;51.756;7.450;2024-03-02T07:02:23;1.57;;;1.47;;
19291;SDS011;9779;51.756;7.450;2024-03-02T07:04:51;4.13;;;1.63;;
19291;SDS011;9779;51.756;7.450;2024-03-02T07:07:20;3.63;;;1.43;;
19291;SDS011;9779;51.756;7.450;2024-03-02T07:09:46;5.00;;;1.50;;
19291;SDS011;9779;51.756;7.450;2024-03-02T07:12:12;1.80;;;1.70;;
19291;SDS011;9779;51.756;7.450;2024-03-02T07:14:38;11.10;;;1.80;;
19291;SDS011;9779;51.756;7.450;2024-03-02T07:17:36;8.60;;;2.00;;
19291;SDS011;9779;51.756;7.450;2024-03-02T07:20:02;9.40;;;2.37;;
19291;SDS011;9779;51.756;7.450;2024-03-02T07:22:31;5.40;;;1.77;;
19291;SDS011;9779;51.756;7.450;2024-03-02T07:24:58;2.13;;;1.60;;
19291;SDS011;9779;51.756;7.450;2024-03-02T07:27:23;2.27;;;1.60;;
19291;SDS011;9779;51.756;7.450;2024-03-02T07:29:49;3.07;;;1.73;;
19291;SDS011;9779;51.756;7.450;2024-03-02T07:32:15;2.20;;;1.93;;
19291;SDS011;9779;51.756;7.450;2024-03-02T07:34:40;2.70;;;2.20;;
19291;SDS011;9779;51.756;7.450;2024-03-02T07:37:06;7.83;;;2.33;;
19291;SDS011;9779;51.756;7.450;2024-03-02T07:39:32;3.07;;;2.03;;
19291;SDS011;9779;51.756;7.450;2024-03-02T07:41:57;4.37;;;2.27;;
19291;SDS011;9779;51.756;7.450;2024-03-02T07:44:23;2.60;;;2.20;;
19291;SDS011;9779;51.756;7.450;2024-03-02T07:46:49;5.10;;;1.73;;
19291;SDS011;9779;51.756;7.450;2024-03-02T07:49:15;1.97;;;1.87;;
19291;SDS011;9779;51.756;7.450;2024-03-02T07:51:41;7.03;;;2.57;;
19291;SDS011;9779;51.756;7.450;2024-03-02T07:54:07;5.37;;;2.27;;
19291;SDS011;9779;51.756;7.450;2024-03-02T07:56:33;2.90;;;2.70;;
19291;SDS011;9779;51.756;7.450;2024-03-02T07:58:59;3.33;;;2.30;;
19291;SDS011;9779;51.756;7.450;2024-03-02T08:01:29;2.30;;;2.10;;
19291;SDS011;9779;51.756;7.450;2024-03-02T08:03:58;3.40;;;2.50;;
19291;SDS011;9779;51.756;7.450;2024-03-02T08:06:30;3.13;;;2.33;;
19291;SDS011;9779;51.756;7.450;2024-03-02T08:08:57;2.47;;;2.27;;
19291;SDS011;9779;51.756;7.450;2024-03-02T08:11:23;2.60;;;2.20;;
19291;SDS011;9779;51.756;7.450;2024-03-02T08:13:49;2.20;;;2.10;;
19291;SDS011;9779;51.756;7.450;2024-03-02T08:16:16;2.83;;;2.23;;
19291;SDS011;9779;51.756;7.450;2024-03-02T08:18:46;2.63;;;1.70;;
19291;SDS011;9779;51.756;7.450;2024-03-02T08:21:12;2.40;;;2.20;;
19291;SDS011;9779;51.756;7.450;2024-03-02T08:23:38;1.90;;;1.80;;
19291;SDS011;9779;51.756;7.450;2024-03-02T08:26:06;5.47;;;3.07;;
19291;SDS011;9779;51.756;7.450;2024-03-02T08:28:31;3.40;;;2.10;;
19291;SDS011;9779;51.756;7.450;2024-03-02T08:30:58;8.83;;;2.20;;
19291;SDS011;9779;51.756;7.450;2024-03-02T08:33:23;2.17;;;1.97;;
19291;SDS011;9779;51.756;7.450;2024-03-02T08:35:49;2.90;;;2.33;;
19291;SDS011;9779;51.756;7.450;2024-03-02T08:38:15;3.87;;;2.30;;
19291;SDS011;9779;51.756;7.450;2024-03-02T08:40:40;3.10;;;2.77;;
19291;SDS011;9779;51.756;7.450;2024-03-02T08:43:06;3.00;;;2.53;;
19291;SDS011;9779;51.756;7.450;2024-03-02T08:45:32;3.20;;;2.57;;
19291;SDS011;9779;51.756;7.450;2024-03-02T08:47:59;2.67;;;2.47;;
19291;SDS011;9779;51.756;7.450;2024-03-02T08:50:25;4.90;;;2.20;;
19291;SDS011;9779;51.756;7.450;2024-03-02T08:52:51;2.77;;;2.57;;
19291;SDS011;9779;51.756;7.450;2024-03-02T08:55:16;2.70;;;2.40;;
19291;SDS011;9779;51.756;7.450;2024-03-02T08:57:42;6.10;;;2.27;;
19291;SDS011;9779;51.756;7.450;2024-03-02T09:00:08;4.80;;;2.50;;
19291;SDS011;9779;51.756;7.450;2024-03-02T09:02:34;1.80;;;1.70;;
19291;SDS011;9779;51.756;7.450;2024-03-02T09:05:00;4.73;;;2.00;;
19291;SDS011;9779;51.756;7.450;2024-03-02T09:07:26;4.20;;;2.10;;
19291;SDS011;9779;51.756;7.450;2024-03-02T09:09:52;1.83;;;1.73;;
19291;SDS011;9779;51.756;7.450;2024-03-02T09:12:17;1.80;;;1.70;;
19291;SDS011;9779;51.756;7.450;2024-03-02T09:14:44;2.17;;;2.07;;
19291;SDS011;9779;51.756;7.450;2024-03-02T09:17:10;1.80;;;1.70;;
19291;SDS011;9779;51.756;7.450;2024-03-02T09:19:36;6.03;;;1.87;;
19291;SDS011;9779;51.756;7.450;2024-03-02T09:22:03;2.07;;;1.87;;
19291;SDS011;9779;51.756;7.450;2024-03-02T09:24:30;1.80;;;1.63;;
19291;SDS011;9779;51.756;7.450;2024-03-02T09:26:56;2.07;;;1.87;;
19291;SDS011;9779;51.756;7.450;2024-03-02T09:29:22;2.33;;;2.00;;
19291;SDS011;9779;51.756;7.450;2024-03-02T09:31:47;2.63;;;1.73;;
19291;SDS011;9779;51.756;7.450;2024-03-02T09:34:14;1.60;;;1.50;;
19291;SDS011;9779;51.756;7.450;2024-03-02T09:36:40;1.77;;;1.67;;
19291;SDS011;9779;51.756;7.450;2024-03-02T09:39:09;1.50;;;1.40;;
19291;SDS011;9779;51.756;7.450;2024-03-02T09:41:38;1.67;;;1.57;;
19291;SDS011;9779;51.756;7.450;2024-03-02T09:44:06;2.97;;;1.20;;
19291;SDS011;9779;51.756;7.450;2024-03-02T09:46:32;1.90;;;1.70;;
19291;SDS011;9779;51.756;7.450;2024-03-02T09:48:58;4.60;;;1.87;;
19291;SDS011;9779;51.756;7.450;2024-03-02T09:51:24;2.40;;;1.87;;
19291;SDS011;9779;51.756;7.450;2024-03-02T09:53:49;1.73;;;1.60;;
19291;SDS011;9779;51.756;7.450;2024-03-02T09:56:15;7.27;;;1.53;;
19291;SDS011;9779;51.756;7.450;2024-03-02T09:58:41;1.83;;;1.70;;
19291;SDS011;9779;51.756;7.450;2024-03-02T10:01:08;1.40;;;1.30;;
19291;SDS011;9779;51.756;7.450;2024-03-02T10:03:35;3.00;;;1.63;;
19291;SDS011;9779;51.756;7.450;2024-03-02T10:08:46;1.60;;;1.50;;
19291;SDS011;9779;51.756;7.450;2024-03-02T10:11:31;1.57;;;1.30;;
19291;SDS011;9779;51.756;7.450;2024-03-02T10:16:34;2.07;;;1.10;;
19291;SDS011;9779;51.756;7.450;2024-03-02T10:21:48;3.87;;;1.10;;
19291;SDS011;9779;51.756;7.450;2024-03-02T10:24:20;3.63;;;1.73;;
19291;SDS011;9779;51.756;7.450;2024-03-02T10:26:51;2.47;;;1.03;;
19291;SDS011;9779;51.756;7.450;2024-03-02T10:29:17;1.20;;;1.10;;
19291;SDS011;9779;51.756;7.450;2024-03-02T10:31:44;5.50;;;0.90;;
19291;SDS011;9779;51.756;7.450;2024-03-02T10:34:11;2.07;;;0.90;;
19291;SDS011;9779;51.756;7.450;2024-03-02T10:36:41;1.10;;;1.00;;
19291;SDS011;9779;51.756;7.450;2024-03-02T10:39:08;5.50;;;1.20;;
19291;SDS011;9779;51.756;7.450;2024-03-02T10:41:34;1.40;;;1.20;;
19291;SDS011;9779;51.756;7.450;2024-03-02T10:44:04;1.33;;;1.20;;
19291;SDS011;9779;51.756;7.450;2024-03-02T10:46:31;1.17;;;1.03;;
19291;SDS011;9779;51.756;7.450;2024-03-02T10:48:58;1.20;;;1.20;;
19291;SDS011;9779;51.756;7.450;2024-03-02T10:51:25;1.50;;;1.40;;
19291;SDS011;9779;51.756;7.450;2024-03-02T10:53:54;1.73;;;1.00;;
19291;SDS011;9779;51.756;7.450;2024-03-02T10:58:55;1.00;;;0.90;;
19291;SDS011;9779;51.756;7.450;2024-03-02T11:01:46;1.73;;;0.77;;
19291;SDS011;9779;51.756;7.450;2024-03-02T11:04:13;0.90;;;0.73;;
19291;SDS011;9779;51.756;7.450;2024-03-02T11:06:44;0.70;;;0.60;;
19291;SDS011;9779;51.756;7.450;2024-03-02T11:09:14;1.57;;;0.73;;
19291;SDS011;9779;51.756;7.450;2024-03-02T11:11:45;2.40;;;0.80;;
19291;SDS011;9779;51.756;7.450;2024-03-02T11:14:29;1.33;;;0.70;;
19291;SDS011;9779;51.756;7.450;2024-03-02T11:16:57;0.97;;;0.83;;
19291;SDS011;9779;51.756;7.450;2024-03-02T11:19:25;2.77;;;0.90;;
19291;SDS011;9779;51.756;7.450;2024-03-02T11:21:51;0.90;;;0.87;;
19291;SDS011;9779;51.756;7.450;2024-03-02T11:26:51;1.77;;;1.37;;
19291;SDS011;9779;51.756;7.450;2024-03-02T11:32:05;0.70;;;0.70;;
19291;SDS011;9779;51.756;7.450;2024-03-02T11:34:32;1.00;;;0.90;;
19291;SDS011;9779;51.756;7.450;2024-03-02T11:36:59;1.20;;;0.90;;
19291;SDS011;9779;51.756;7.450;2024-03-02T11:39:28;1.10;;;1.10;;
19291;SDS011;9779;51.756;7.450;2024-03-02T11:41:57;1.83;;;1.10;;
19291;SDS011;9779;51.756;7.450;2024-03-02T11:44:26;3.67;;;0.90;;
19291;SDS011;9779;51.756;7.450;2024-03-02T11:46:58;1.50;;;0.90;;
19291;SDS011;9779;51.756;7.450;2024-03-02T11:52:11;1.60;;;0.80;;
19291;SDS011;9779;51.756;7.450;2024-03-02T11:54:42;0.97;;;0.87;;
19291;SDS011;9779;51.756;7.450;2024-03-02T11:57:16;1.17;;;1.07;;
19291;SDS011;9779;51.756;7.450;2024-03-02T11:59:48;0.73;;;0.67;;
19291;SDS011;9779;51.756;7.450;2024-03-02T12:02:20;1.83;;;0.70;;
19291;SDS011;9779;51.756;7.450;2024-03-02T12:04:46;1.23;;;0.77;;
19291;SDS011;9779;51.756;7.450;2024-03-02T12:07:18;2.57;;;0.97;;
19291;SDS011;9779;51.756;7.450;2024-03-02T12:09:46;1.17;;;0.70;;
19291;SDS011;9779;51.756;7.450;2024-03-02T12:12:12;0.63;;;0.60;;
19291;SDS011;9779;51.756;7.450;2024-03-02T12:14:49;2.30;;;1.00;;
19291;SDS011;9779;51.756;7.450;2024-03-02T12:17:20;1.00;;;0.70;;
19291;SDS011;9779;51.756;7.450;2024-03-02T12:19:47;0.70;;;0.70;;
19291;SDS011;9779;51.756;7.450;2024-03-02T12:22:13;2.60;;;0.90;;
19291;SDS011;9779;51.756;7.450;2024-03-02T12:24:40;0.70;;;0.70;;
19291;SDS011;9779;51.756;7.450;2024-03-02T12:27:06;1.60;;;0.73;;
19291;SDS011;9779;51.756;7.450;2024-03-02T12:29:32;0.83;;;0.70;;
19291;SDS011;9779;51.756;7.450;2024-03-02T12:31:59;0.50;;;0.50;;
19291;SDS011;9779;51.756;7.450;2024-03-02T12:34:27;0.80;;;0.80;;
19291;SDS011;9779;51.756;7.450;2024-03-02T12:36:53;0.60;;;0.60;;
19291;SDS011;9779;51.756;7.450;2024-03-02T12:39:19;1.73;;;0.70;;
19291;SDS011;9779;51.756;7.450;2024-03-02T12:41:49;5.23;;;2.13;;
19291;SDS011;9779;51.756;7.450;2024-03-02T12:44:19;1.13;;;0.83;;
19291;SDS011;9779;51.756;7.450;2024-03-02T12:46:45;0.80;;;0.80;;
19291;SDS011;9779;51.756;7.450;2024-03-02T12:49:12;1.23;;;0.90;;
19291;SDS011;9779;51.756;7.450;2024-03-02T12:51:39;3.23;;;0.80;;
19291;SDS011;9779;51.756;7.450;2024-03-02T12:54:06;3.30;;;1.13;;
19291;SDS011;9779;51.756;7.450;2024-03-02T12:56:32;1.97;;;1.00;;
19291;SDS011;9779;51.756;7.450;2024-03-02T12:58:58;1.20;;;0.83;;
19291;SDS011;9779;51.756;7.450;2024-03-02T13:01:25;2.87;;;0.60;;
19291;SDS011;9779;51.756;7.450;2024-03-02T13:03:52;1.33;;;0.90;;
19291;SDS011;9779;51.756;7.450;2024-03-02T13:06:20;1.10;;;0.90;;
19291;SDS011;9779;51.756;7.450;2024-03-02T13:08:46;1.27;;;0.80;;
19291;SDS011;9779;51.756;7.450;2024-03-02T13:11:12;0.73;;;0.50;;
19291;SDS011;9779;51.756;7.450;2024-03-02T13:13:41;1.20;;;0.77;;
19291;SDS011;9779;51.756;7.450;2024-03-02T13:16:10;1.43;;;0.80;;
19291;SDS011;9779;51.756;7.450;2024-03-02T13:18:36;1.17;;;0.70;;
19291;SDS011;9779;51.756;7.450;2024-03-02T13:21:02;0.70;;;0.63;;
19291;SDS011;9779;51.756;7.450;2024-03-02T13:23:28;0.50;;;0.50;;
19291;SDS011;9779;51.756;7.450;2024-03-02T13:25:56;0.73;;;0.60;;
19291;SDS011;9779;51.756;7.450;2024-03-02T13:28:23;0.70;;;0.70;;
19291;SDS011;9779;51.756;7.450;2024-03-02T13:30:49;0.60;;;0.50;;
19291;SDS011;9779;51.756;7.450;2024-03-02T13:33:15;2.90;;;0.60;;
19291;SDS011;9779;51.756;7.450;2024-03-02T13:35:40;0.60;;;0.60;;
19291;SDS011;9779;51.756;7.450;2024-03-02T13:38:06;0.60;;;0.60;;
19291;SDS011;9779;51.756;7.450;2024-03-02T13:40:31;0.60;;;0.60;;
19291;SDS011;9779;51.756;7.450;2024-03-02T13:43:00;1.00;;;0.50;;
19291;SDS011;9779;51.756;7.450;2024-03-02T13:45:27;0.60;;;0.60;;
19291;SDS011;9779;51.756;7.450;2024-03-02T13:47:53;1.97;;;0.47;;
19291;SDS011;9779;51.756;7.450;2024-03-02T13:50:19;0.50;;;0.50;;
19291;SDS011;9779;51.756;7.450;2024-03-02T13:52:45;2.73;;;0.70;;
19291;SDS011;9779;51.756;7.450;2024-03-02T13:55:10;0.60;;;0.50;;
19291;SDS011;9779;51.756;7.450;2024-03-02T13:57:36;3.73;;;0.50;;
19291;SDS011;9779;51.756;7.450;2024-03-02T14:00:02;0.60;;;0.50;;
19291;SDS011;9779;51.756;7.450;2024-03-02T14:02:35;0.67;;;0.67;;
19291;SDS011;9779;51.756;7.450;2024-03-02T14:05:01;0.83;;;0.70;;
19291;SDS011;9779;51.756;7.450;2024-03-02T14:07:26;0.60;;;0.60;;
19291;SDS011;9779;51.756;7.450;2024-03-02T14:09:52;1.33;;;1.23;;
19291;SDS011;9779;51.756;7.450;2024-03-02T14:12:18;0.77;;;0.67;;
19291;SDS011;9779;51.756;7.450;2024-03-02T14:14:43;0.73;;;0.73;;
19291;SDS011;9779;51.756;7.450;2024-03-02T14:17:09;0.80;;;0.80;;
19291;SDS011;9779;51.756;7.450;2024-03-02T14:19:39;1.07;;;0.80;;
19291;SDS011;9779;51.756;7.450;2024-03-02T14:22:05;2.00;;;0.67;;
19291;SDS011;9779;51.756;7.450;2024-03-02T14:24:30;0.70;;;0.57;;
19291;SDS011;9779;51.756;7.450;2024-03-02T14:26:56;0.60;;;0.50;;
19291;SDS011;9779;51.756;7.450;2024-03-02T14:29:28;1.90;;;0.40;;
19291;SDS011;9779;51.756;7.450;2024-03-02T14:31:54;0.40;;;0.40;;
19291;SDS011;9779;51.756;7.450;2024-03-02T14:34:19;0.43;;;0.43;;
19291;SDS011;9779;51.756;7.450;2024-03-02T14:36:45;5.50;;;0.70;;
19291;SDS011;9779;51.756;7.450;2024-03-02T14:39:11;0.93;;;0.50;;
19291;SDS011;9779;51.756;7.450;2024-03-02T14:41:36;0.57;;;0.50;;
19291;SDS011;9779;51.756;7.450;2024-03-02T14:44:02;0.67;;;0.67;;
19291;SDS011;9779;51.756;7.450;2024-03-02T14:46:28;0.50;;;0.50;;
19291;SDS011;9779;51.756;7.450;2024-03-02T14:48:54;2.10;;;0.60;;
19291;SDS011;9779;51.756;7.450;2024-03-02T14:51:20;0.43;;;0.43;;
19291;SDS011;9779;51.756;7.450;2024-03-02T14:53:46;1.80;;;0.47;;
19291;SDS011;9779;51.756;7.450;2024-03-02T14:56:11;4.20;;;0.47;;
19291;SDS011;9779;51.756;7.450;2024-03-02T14:58:38;0.50;;;0.50;;
19291;SDS011;9779;51.756;7.450;2024-03-02T15:01:04;0.50;;;0.50;;
19291;SDS011;9779;51.756;7.450;2024-03-02T15:03:34;0.67;;;0.67;;
19291;SDS011;9779;51.756;7.450;2024-03-02T15:06:00;0.73;;;0.73;;
19291;SDS011;9779;51.756;7.450;2024-03-02T15:08:27;0.40;;;0.40;;
19291;SDS011;9779;51.756;7.450;2024-03-02T15:10:53;1.23;;;0.50;;
19291;SDS011;9779;51.756;7.450;2024-03-02T15:13:21;0.60;;;0.40;;
19291;SDS011;9779;51.756;7.450;2024-03-02T15:15:47;2.80;;;0.40;;
19291;SDS011;9779;51.756;7.450;2024-03-02T15:18:13;0.43;;;0.43;;
19291;SDS011;9779;51.756;7.450;2024-03-02T15:20:38;0.60;;;0.60;;
19291;SDS011;9779;51.756;7.450;2024-03-02T15:23:05;0.77;;;0.60;;